EWG23G EBBR-EDDF
Flight info
| Callsign | EWG23G |
|---|---|
| Flight time | 0h 45m |
| Altitude | 23000 |
| Route | SPI T180 NIVNU T847 IMCOM IMCOM1A |
| Aircraft | A320/M-SDE3FGHIRWY/LB1 |
Departure
| Time | 2026-05-06 15:18 |
|---|---|
| Airport | Brussels Airport (EBBR) |
Arrival
| Time | 2026-05-06 16:04 |
|---|---|
| Airport | Frankfurt Main Airport (EDDF) |
| Time | Latitude | Longitude | Altitude | Speed | Heading |
|---|---|---|---|---|---|
| 2026-05-06 14:48 | 50.90347 | 4.48826 | 117 ft | 0 kts | 335° |
| 2026-05-06 15:02 | 50.90347 | 4.48827 | 121 ft | 0 kts | 335° |
| 2026-05-06 15:02 | 50.90328 | 4.48841 | 118 ft | 4 kts | 335° |
| 2026-05-06 15:02 | 50.90303 | 4.48859 | 119 ft | 4 kts | 335° |
| 2026-05-06 15:02 | 50.90282 | 4.48872 | 121 ft | 4 kts | 359° |
| 2026-05-06 15:03 | 50.90264 | 4.48860 | 120 ft | 4 kts | 69° |
| 2026-05-06 15:03 | 50.90257 | 4.48819 | 122 ft | 3 kts | 68° |
| 2026-05-06 15:03 | 50.90255 | 4.48812 | 122 ft | 1 kts | 65° |
| 2026-05-06 15:04 | 50.90256 | 4.48817 | 122 ft | 3 kts | 67° |
| 2026-05-06 15:04 | 50.90263 | 4.48857 | 120 ft | 4 kts | 71° |
| 2026-05-06 15:04 | 50.90281 | 4.48872 | 121 ft | 4 kts | 3° |
| 2026-05-06 15:04 | 50.90301 | 4.48860 | 119 ft | 3 kts | 335° |
| 2026-05-06 15:05 | 50.90326 | 4.48842 | 118 ft | 4 kts | 335° |
| 2026-05-06 15:05 | 50.90347 | 4.48827 | 121 ft | 1 kts | 335° |
| 2026-05-06 15:05 | 50.90347 | 4.48826 | 121 ft | 0 kts | 335° |
| 2026-05-06 15:08 | 50.90332 | 4.48837 | 118 ft | 4 kts | 335° |
| 2026-05-06 15:09 | 50.90308 | 4.48855 | 119 ft | 4 kts | 335° |
| 2026-05-06 15:09 | 50.90287 | 4.48870 | 121 ft | 4 kts | 349° |
| 2026-05-06 15:09 | 50.90267 | 4.48866 | 123 ft | 4 kts | 59° |
| 2026-05-06 15:09 | 50.90258 | 4.48827 | 122 ft | 4 kts | 72° |
| 2026-05-06 15:10 | 50.90255 | 4.48812 | 122 ft | 1 kts | 65° |
| 2026-05-06 15:12 | 50.90256 | 4.48817 | 122 ft | 2 kts | 66° |
| 2026-05-06 15:12 | 50.90275 | 4.48885 | 124 ft | 11 kts | 66° |
| 2026-05-06 15:12 | 50.90308 | 4.49001 | 124 ft | 13 kts | 65° |
| 2026-05-06 15:13 | 50.90349 | 4.49139 | 119 ft | 15 kts | 65° |
| 2026-05-06 15:13 | 50.90396 | 4.49300 | 121 ft | 17 kts | 65° |
| 2026-05-06 15:13 | 50.90450 | 4.49484 | 123 ft | 19 kts | 65° |
| 2026-05-06 15:13 | 50.90534 | 4.49616 | 122 ft | 17 kts | 4° |
| 2026-05-06 15:14 | 50.90652 | 4.49673 | 124 ft | 18 kts | 17° |
| 2026-05-06 15:14 | 50.90782 | 4.49722 | 124 ft | 20 kts | 13° |
| 2026-05-06 15:14 | 50.90906 | 4.49778 | 122 ft | 13 kts | 21° |
| 2026-05-06 15:14 | 50.90922 | 4.49790 | 121 ft | 0 kts | 26° |
| 2026-05-06 15:16 | 50.90928 | 4.49797 | 120 ft | 3 kts | 32° |
| 2026-05-06 15:16 | 50.90956 | 4.49830 | 119 ft | 9 kts | 38° |
| 2026-05-06 15:16 | 50.91042 | 4.49918 | 116 ft | 18 kts | 24° |
| 2026-05-06 15:16 | 50.91137 | 4.49923 | 116 ft | 14 kts | 307° |
| 2026-05-06 15:17 | 50.91120 | 4.49815 | 118 ft | 0 kts | 243° |
| 2026-05-06 15:17 | 50.91083 | 4.49690 | 116 ft | 45 kts | 245° |
| 2026-05-06 15:18 | 50.90845 | 4.48871 | 119 ft | 115 kts | 245° |
| 2026-05-06 15:18 | 50.90438 | 4.47456 | 125 ft | 165 kts | 245° |
| 2026-05-06 15:18 | 50.89904 | 4.45695 | 510 ft | 182 kts | 247° |
| 2026-05-06 15:18 | 50.89346 | 4.43854 | 1211 ft | 189 kts | 248° |
| 2026-05-06 15:19 | 50.88709 | 4.41992 | 1952 ft | 198 kts | 237° |
| 2026-05-06 15:19 | 50.87731 | 4.40374 | 2676 ft | 210 kts | 220° |
| 2026-05-06 15:19 | 50.86443 | 4.39157 | 3369 ft | 222 kts | 204° |
| 2026-05-06 15:19 | 50.84918 | 4.38574 | 4148 ft | 228 kts | 186° |
| 2026-05-06 15:20 | 50.83310 | 4.38620 | 4824 ft | 239 kts | 160° |
| 2026-05-06 15:20 | 50.81843 | 4.40078 | 5268 ft | 262 kts | 139° |
| 2026-05-06 15:20 | 50.80512 | 4.42181 | 5865 ft | 278 kts | 123° |
| 2026-05-06 15:20 | 50.79756 | 4.45011 | 6590 ft | 286 kts | 100° |
| 2026-05-06 15:21 | 50.79611 | 4.48164 | 7474 ft | 285 kts | 88° |
| 2026-05-06 15:21 | 50.79311 | 4.51259 | 8491 ft | 289 kts | 110° |
| 2026-05-06 15:21 | 50.78221 | 4.53952 | 9409 ft | 295 kts | 130° |
| 2026-05-06 15:21 | 50.76825 | 4.56363 | 10148 ft | 306 kts | 132° |
| 2026-05-06 15:22 | 50.75307 | 4.58904 | 10455 ft | 330 kts | 133° |
| 2026-05-06 15:22 | 50.73678 | 4.61635 | 10711 ft | 354 kts | 133° |
| 2026-05-06 15:22 | 50.71959 | 4.64525 | 11199 ft | 366 kts | 133° |
| 2026-05-06 15:22 | 50.70195 | 4.67491 | 11843 ft | 374 kts | 133° |
| 2026-05-06 15:23 | 50.68428 | 4.70455 | 12623 ft | 378 kts | 133° |
| 2026-05-06 15:23 | 50.66619 | 4.73479 | 13418 ft | 380 kts | 133° |
| 2026-05-06 15:23 | 50.64771 | 4.76568 | 14107 ft | 385 kts | 133° |
| 2026-05-06 15:23 | 50.62943 | 4.79623 | 14728 ft | 390 kts | 133° |
| 2026-05-06 15:24 | 50.61085 | 4.82754 | 15380 ft | 393 kts | 133° |
| 2026-05-06 15:24 | 50.59214 | 4.85928 | 15984 ft | 398 kts | 133° |
| 2026-05-06 15:24 | 50.57330 | 4.89148 | 16605 ft | 402 kts | 133° |
| 2026-05-06 15:24 | 50.55437 | 4.92400 | 17295 ft | 403 kts | 133° |
| 2026-05-06 15:25 | 50.53541 | 4.95676 | 17907 ft | 407 kts | 133° |
| 2026-05-06 15:25 | 50.51627 | 4.98978 | 18538 ft | 408 kts | 133° |
| 2026-05-06 15:25 | 50.49744 | 5.02214 | 19403 ft | 392 kts | 133° |
| 2026-05-06 15:25 | 50.47936 | 5.05325 | 19972 ft | 382 kts | 133° |
| 2026-05-06 15:26 | 50.46147 | 5.08406 | 20258 ft | 381 kts | 133° |
| 2026-05-06 15:26 | 50.44357 | 5.11479 | 20833 ft | 382 kts | 133° |
| 2026-05-06 15:26 | 50.42554 | 5.14571 | 21466 ft | 384 kts | 133° |
| 2026-05-06 15:26 | 50.40749 | 5.17663 | 22050 ft | 386 kts | 133° |
| 2026-05-06 15:27 | 50.38927 | 5.20761 | 22623 ft | 388 kts | 133° |
| 2026-05-06 15:27 | 50.37088 | 5.23883 | 22849 ft | 389 kts | 133° |
| 2026-05-06 15:27 | 50.35252 | 5.26992 | 22884 ft | 388 kts | 133° |
| 2026-05-06 15:27 | 50.33416 | 5.30093 | 22888 ft | 388 kts | 133° |
| 2026-05-06 15:28 | 50.31592 | 5.33205 | 22888 ft | 388 kts | 130° |
| 2026-05-06 15:28 | 50.30165 | 5.36760 | 22887 ft | 388 kts | 112° |
| 2026-05-06 15:28 | 50.29484 | 5.40826 | 22881 ft | 388 kts | 97° |
| 2026-05-06 15:28 | 50.29177 | 5.45029 | 22882 ft | 389 kts | 97° |
| 2026-05-06 15:29 | 50.28879 | 5.49234 | 22882 ft | 389 kts | 96° |
| 2026-05-06 15:29 | 50.28583 | 5.53452 | 22879 ft | 390 kts | 97° |
| 2026-05-06 15:29 | 50.28283 | 5.57684 | 22883 ft | 394 kts | 98° |
| 2026-05-06 15:29 | 50.27979 | 5.61947 | 22875 ft | 395 kts | 98° |
| 2026-05-06 15:30 | 50.27676 | 5.66158 | 22865 ft | 395 kts | 98° |
| 2026-05-06 15:30 | 50.27364 | 5.70445 | 22866 ft | 396 kts | 98° |
| 2026-05-06 15:30 | 50.27051 | 5.74716 | 22863 ft | 396 kts | 98° |
| 2026-05-06 15:30 | 50.26737 | 5.78990 | 22857 ft | 396 kts | 98° |
| 2026-05-06 15:31 | 50.26421 | 5.83266 | 22861 ft | 396 kts | 98° |
| 2026-05-06 15:31 | 50.26104 | 5.87547 | 22861 ft | 396 kts | 98° |
| 2026-05-06 15:31 | 50.25784 | 5.91815 | 22856 ft | 396 kts | 98° |
| 2026-05-06 15:32 | 50.25138 | 6.00374 | 22851 ft | 397 kts | 98° |
| 2026-05-06 15:32 | 50.24812 | 6.04664 | 22841 ft | 398 kts | 99° |
| 2026-05-06 15:32 | 50.24485 | 6.08910 | 22823 ft | 399 kts | 99° |
| 2026-05-06 15:32 | 50.24152 | 6.13213 | 22838 ft | 400 kts | 99° |
| 2026-05-06 15:33 | 50.23820 | 6.17524 | 22832 ft | 400 kts | 99° |
| 2026-05-06 15:33 | 50.23487 | 6.21845 | 22830 ft | 401 kts | 99° |
| 2026-05-06 15:33 | 50.23153 | 6.26167 | 22815 ft | 401 kts | 99° |
| 2026-05-06 15:33 | 50.22816 | 6.30495 | 22810 ft | 401 kts | 99° |
| 2026-05-06 15:34 | 50.22477 | 6.34828 | 22812 ft | 402 kts | 99° |
| 2026-05-06 15:34 | 50.22134 | 6.39155 | 22591 ft | 403 kts | 99° |
| 2026-05-06 15:34 | 50.21790 | 6.43474 | 22302 ft | 400 kts | 99° |
| 2026-05-06 15:34 | 50.21444 | 6.47787 | 22005 ft | 400 kts | 99° |
| 2026-05-06 15:35 | 50.21097 | 6.52078 | 21738 ft | 399 kts | 99° |
| 2026-05-06 15:35 | 50.20749 | 6.56373 | 21473 ft | 397 kts | 99° |
| 2026-05-06 15:35 | 50.20404 | 6.60643 | 21219 ft | 395 kts | 99° |
| 2026-05-06 15:35 | 50.20059 | 6.64899 | 20961 ft | 394 kts | 99° |
| 2026-05-06 15:36 | 50.19716 | 6.69131 | 20697 ft | 392 kts | 99° |
| 2026-05-06 15:36 | 50.19374 | 6.73347 | 20439 ft | 391 kts | 99° |
| 2026-05-06 15:36 | 50.19030 | 6.77541 | 20183 ft | 389 kts | 99° |
| 2026-05-06 15:36 | 50.18682 | 6.81720 | 19935 ft | 388 kts | 99° |
| 2026-05-06 15:37 | 50.18333 | 6.85880 | 19686 ft | 386 kts | 99° |
| 2026-05-06 15:37 | 50.17984 | 6.90022 | 19428 ft | 384 kts | 99° |
| 2026-05-06 15:37 | 50.17635 | 6.94140 | 19181 ft | 381 kts | 99° |
| 2026-05-06 15:37 | 50.17288 | 6.98223 | 18938 ft | 379 kts | 99° |
| 2026-05-06 15:38 | 50.16941 | 7.02288 | 18701 ft | 377 kts | 99° |
| 2026-05-06 15:38 | 50.16595 | 7.06339 | 18462 ft | 376 kts | 99° |
| 2026-05-06 15:38 | 50.16251 | 7.10371 | 18226 ft | 375 kts | 99° |
| 2026-05-06 15:38 | 50.15908 | 7.14388 | 17974 ft | 373 kts | 99° |
| 2026-05-06 15:39 | 50.15569 | 7.18344 | 17704 ft | 371 kts | 99° |
| 2026-05-06 15:39 | 50.15224 | 7.22325 | 17433 ft | 370 kts | 99° |
| 2026-05-06 15:39 | 50.14880 | 7.26295 | 17162 ft | 368 kts | 99° |
| 2026-05-06 15:39 | 50.14536 | 7.30248 | 16905 ft | 367 kts | 99° |
| 2026-05-06 15:40 | 50.14191 | 7.34181 | 16633 ft | 366 kts | 99° |
| 2026-05-06 15:40 | 50.13847 | 7.38094 | 16374 ft | 364 kts | 99° |
| 2026-05-06 15:40 | 50.13503 | 7.41997 | 16129 ft | 362 kts | 99° |
| 2026-05-06 15:40 | 50.13159 | 7.45885 | 15797 ft | 363 kts | 99° |
| 2026-05-06 15:41 | 50.12810 | 7.49796 | 15306 ft | 373 kts | 99° |
| 2026-05-06 15:41 | 50.12430 | 7.53994 | 14744 ft | 405 kts | 99° |
| 2026-05-06 15:41 | 50.12033 | 7.58390 | 14169 ft | 412 kts | 99° |
| 2026-05-06 15:41 | 50.11635 | 7.62811 | 13586 ft | 411 kts | 99° |
| 2026-05-06 15:42 | 50.10970 | 7.67113 | 12926 ft | 406 kts | 110° |
| 2026-05-06 15:42 | 50.09836 | 7.71089 | 12525 ft | 400 kts | 121° |
| 2026-05-06 15:42 | 50.08318 | 7.74713 | 12309 ft | 400 kts | 127° |
| 2026-05-06 15:42 | 50.06729 | 7.78263 | 12032 ft | 397 kts | 127° |
| 2026-05-06 15:43 | 50.05161 | 7.81785 | 11757 ft | 395 kts | 127° |
| 2026-05-06 15:43 | 50.03605 | 7.85290 | 11485 ft | 392 kts | 126° |
| 2026-05-06 15:43 | 50.02151 | 7.88876 | 11217 ft | 393 kts | 118° |
| 2026-05-06 15:43 | 50.01187 | 7.92857 | 10949 ft | 395 kts | 105° |
| 2026-05-06 15:44 | 50.00820 | 7.97079 | 10711 ft | 395 kts | 92° |
| 2026-05-06 15:44 | 50.01067 | 8.01321 | 10622 ft | 395 kts | 79° |
| 2026-05-06 15:44 | 50.01875 | 8.05363 | 10506 ft | 382 kts | 69° |
| 2026-05-06 15:44 | 50.02792 | 8.09060 | 10315 ft | 351 kts | 69° |
| 2026-05-06 15:45 | 50.03640 | 8.12526 | 9766 ft | 337 kts | 70° |
| 2026-05-06 15:45 | 50.04453 | 8.15887 | 9594 ft | 322 kts | 70° |
| 2026-05-06 15:45 | 50.05208 | 8.19005 | 9462 ft | 306 kts | 70° |
| 2026-05-06 15:45 | 50.05960 | 8.22128 | 9330 ft | 304 kts | 70° |
| 2026-05-06 15:46 | 50.06699 | 8.25191 | 9199 ft | 301 kts | 70° |
| 2026-05-06 15:46 | 50.07436 | 8.28243 | 9074 ft | 300 kts | 70° |
| 2026-05-06 15:46 | 50.07920 | 8.30252 | 8981 ft | 299 kts | 70° |
| 2026-05-06 15:46 | 50.08889 | 8.34263 | 8812 ft | 298 kts | 70° |
| 2026-05-06 15:47 | 50.09614 | 8.37269 | 8671 ft | 294 kts | 70° |
| 2026-05-06 15:47 | 50.10313 | 8.40180 | 8533 ft | 279 kts | 70° |
| 2026-05-06 15:47 | 50.10978 | 8.42937 | 8395 ft | 266 kts | 70° |
| 2026-05-06 15:47 | 50.11413 | 8.44748 | 8304 ft | 263 kts | 70° |
| 2026-05-06 15:48 | 50.12262 | 8.48286 | 8138 ft | 264 kts | 70° |
| 2026-05-06 15:48 | 50.12696 | 8.50099 | 8056 ft | 263 kts | 70° |
| 2026-05-06 15:48 | 50.13333 | 8.52755 | 7923 ft | 265 kts | 70° |
| 2026-05-06 15:48 | 50.13965 | 8.55399 | 7809 ft | 263 kts | 70° |
| 2026-05-06 15:49 | 50.14609 | 8.58104 | 7676 ft | 263 kts | 70° |
| 2026-05-06 15:49 | 50.15232 | 8.60737 | 7549 ft | 262 kts | 70° |
| 2026-05-06 15:49 | 50.15860 | 8.63392 | 7420 ft | 261 kts | 70° |
| 2026-05-06 15:49 | 50.16491 | 8.66054 | 7294 ft | 261 kts | 70° |
| 2026-05-06 15:50 | 50.17118 | 8.68703 | 7167 ft | 261 kts | 71° |
| 2026-05-06 15:50 | 50.17748 | 8.71352 | 7042 ft | 260 kts | 71° |
| 2026-05-06 15:50 | 50.18375 | 8.73992 | 6915 ft | 260 kts | 70° |
| 2026-05-06 15:50 | 50.19003 | 8.76631 | 6789 ft | 259 kts | 70° |
| 2026-05-06 15:51 | 50.19628 | 8.79263 | 6666 ft | 258 kts | 71° |
| 2026-05-06 15:51 | 50.20248 | 8.81887 | 6535 ft | 258 kts | 70° |
| 2026-05-06 15:51 | 50.20867 | 8.84514 | 6417 ft | 257 kts | 70° |
| 2026-05-06 15:51 | 50.21483 | 8.87133 | 6295 ft | 257 kts | 71° |
| 2026-05-06 15:52 | 50.22097 | 8.89749 | 6166 ft | 256 kts | 71° |
| 2026-05-06 15:52 | 50.22708 | 8.92364 | 6039 ft | 256 kts | 71° |
| 2026-05-06 15:52 | 50.23316 | 8.94973 | 5908 ft | 255 kts | 71° |
| 2026-05-06 15:52 | 50.23925 | 8.97577 | 5771 ft | 255 kts | 71° |
| 2026-05-06 15:53 | 50.24532 | 9.00175 | 5642 ft | 255 kts | 71° |
| 2026-05-06 15:53 | 50.25138 | 9.02776 | 5512 ft | 254 kts | 71° |
| 2026-05-06 15:53 | 50.25741 | 9.05361 | 5379 ft | 254 kts | 71° |
| 2026-05-06 15:53 | 50.26341 | 9.07959 | 5262 ft | 254 kts | 73° |
| 2026-05-06 15:54 | 50.26456 | 9.10646 | 5119 ft | 248 kts | 109° |
| 2026-05-06 15:54 | 50.25546 | 9.12792 | 4997 ft | 235 kts | 149° |
| 2026-05-06 15:54 | 50.24047 | 9.13572 | 4969 ft | 226 kts | 179° |
| 2026-05-06 15:54 | 50.22550 | 9.13303 | 4973 ft | 210 kts | 203° |
| 2026-05-06 15:55 | 50.21362 | 9.12150 | 4984 ft | 195 kts | 227° |
| 2026-05-06 15:55 | 50.20588 | 9.10483 | 4969 ft | 191 kts | 238° |
| 2026-05-06 15:55 | 50.19881 | 9.08736 | 4970 ft | 190 kts | 237° |
| 2026-05-06 15:55 | 50.19185 | 9.07028 | 4997 ft | 182 kts | 237° |
| 2026-05-06 15:56 | 50.18508 | 9.05382 | 5005 ft | 179 kts | 237° |
| 2026-05-06 15:56 | 50.17835 | 9.03751 | 4992 ft | 178 kts | 237° |
| 2026-05-06 15:56 | 50.17169 | 9.02136 | 4975 ft | 177 kts | 237° |
| 2026-05-06 15:56 | 50.16501 | 9.00514 | 4977 ft | 179 kts | 237° |
| 2026-05-06 15:57 | 50.15829 | 8.98883 | 4990 ft | 178 kts | 237° |
| 2026-05-06 15:57 | 50.15161 | 8.97262 | 4973 ft | 178 kts | 237° |
| 2026-05-06 15:57 | 50.14573 | 8.95571 | 4980 ft | 179 kts | 249° |
| 2026-05-06 15:57 | 50.14150 | 8.93743 | 4982 ft | 179 kts | 248° |
| 2026-05-06 15:58 | 50.13723 | 8.91926 | 4995 ft | 179 kts | 248° |
| 2026-05-06 15:58 | 50.13295 | 8.90110 | 4998 ft | 179 kts | 248° |
| 2026-05-06 15:58 | 50.12866 | 8.88287 | 4996 ft | 179 kts | 248° |
| 2026-05-06 15:58 | 50.12436 | 8.86462 | 4997 ft | 179 kts | 248° |
| 2026-05-06 15:59 | 50.12006 | 8.84637 | 5000 ft | 180 kts | 248° |
| 2026-05-06 15:59 | 50.11575 | 8.82819 | 4982 ft | 178 kts | 248° |
| 2026-05-06 15:59 | 50.11146 | 8.81017 | 4967 ft | 176 kts | 248° |
| 2026-05-06 15:59 | 50.10722 | 8.79233 | 4579 ft | 176 kts | 248° |
| 2026-05-06 16:00 | 50.10296 | 8.77439 | 4120 ft | 176 kts | 249° |
| 2026-05-06 16:00 | 50.09902 | 8.75767 | 3971 ft | 157 kts | 248° |
| 2026-05-06 16:00 | 50.09535 | 8.74218 | 3618 ft | 151 kts | 249° |
| 2026-05-06 16:00 | 50.09172 | 8.72683 | 3187 ft | 151 kts | 249° |
| 2026-05-06 16:01 | 50.08802 | 8.71121 | 2860 ft | 156 kts | 250° |
| 2026-05-06 16:01 | 50.08426 | 8.69534 | 2609 ft | 156 kts | 251° |
| 2026-05-06 16:01 | 50.08052 | 8.67960 | 2390 ft | 155 kts | 251° |
| 2026-05-06 16:01 | 50.07676 | 8.66374 | 2180 ft | 157 kts | 251° |
| 2026-05-06 16:02 | 50.07304 | 8.64808 | 1953 ft | 155 kts | 252° |
| 2026-05-06 16:02 | 50.06934 | 8.63247 | 1761 ft | 152 kts | 250° |
| 2026-05-06 16:02 | 50.06567 | 8.61705 | 1556 ft | 158 kts | 251° |
| 2026-05-06 16:02 | 50.06183 | 8.60088 | 1345 ft | 156 kts | 254° |
| 2026-05-06 16:03 | 50.05808 | 8.58515 | 1119 ft | 155 kts | 251° |
| 2026-05-06 16:03 | 50.05443 | 8.56986 | 893 ft | 149 kts | 250° |
| 2026-05-06 16:03 | 50.05085 | 8.55490 | 681 ft | 144 kts | 253° |
| 2026-05-06 16:03 | 50.04747 | 8.54094 | 516 ft | 137 kts | 252° |
| 2026-05-06 16:04 | 50.04429 | 8.52692 | 360 ft | 136 kts | 250° |
| 2026-05-06 16:04 | 50.04146 | 8.51468 | 330 ft | 96 kts | 245° |
| 2026-05-06 16:04 | 50.03972 | 8.50825 | 324 ft | 32 kts | 250° |
| 2026-05-06 16:04 | 50.03928 | 8.50635 | 324 ft | 16 kts | 250° |
| 2026-05-06 16:05 | 50.03878 | 8.50475 | 322 ft | 19 kts | 239° |
| 2026-05-06 16:05 | 50.03784 | 8.50306 | 320 ft | 17 kts | 221° |
| 2026-05-06 16:05 | 50.03730 | 8.50237 | 318 ft | 5 kts | 220° |
| 2026-05-06 16:05 | 50.03715 | 8.50219 | 319 ft | 0 kts | 220° |
| 2026-05-06 16:06 | 50.03714 | 8.50217 | 319 ft | 3 kts | 220° |
| 2026-05-06 16:06 | 50.03687 | 8.50188 | 320 ft | 2 kts | 206° |
| 2026-05-06 16:06 | 50.03685 | 8.50187 | 320 ft | 0 kts | 205° |
| 2026-05-06 16:07 | 50.03645 | 8.50181 | 323 ft | 16 kts | 167° |
| 2026-05-06 16:07 | 50.03616 | 8.50210 | 323 ft | 1 kts | 110° |
| 2026-05-06 16:07 | 50.03629 | 8.50290 | 324 ft | 14 kts | 70° |
| 2026-05-06 16:07 | 50.03661 | 8.50422 | 326 ft | 10 kts | 70° |
| 2026-05-06 16:08 | 50.03678 | 8.50497 | 328 ft | 5 kts | 70° |
| 2026-05-06 16:08 | 50.03696 | 8.50572 | 327 ft | 18 kts | 70° |
| 2026-05-06 16:08 | 50.03739 | 8.50753 | 328 ft | 15 kts | 69° |
| 2026-05-06 16:08 | 50.03773 | 8.50891 | 332 ft | 18 kts | 69° |
| 2026-05-06 16:09 | 50.03843 | 8.51183 | 333 ft | 34 kts | 70° |
| 2026-05-06 16:09 | 50.03923 | 8.51516 | 335 ft | 33 kts | 69° |
| 2026-05-06 16:09 | 50.03998 | 8.51838 | 335 ft | 31 kts | 71° |
| 2026-05-06 16:09 | 50.04071 | 8.52133 | 337 ft | 28 kts | 72° |
| 2026-05-06 16:10 | 50.04102 | 8.52265 | 347 ft | 26 kts | 69° |
| 2026-05-06 16:10 | 50.04133 | 8.52393 | 350 ft | 24 kts | 69° |
| 2026-05-06 16:10 | 50.04186 | 8.52620 | 356 ft | 20 kts | 71° |
| 2026-05-06 16:10 | 50.04226 | 8.52789 | 356 ft | 15 kts | 68° |
| 2026-05-06 16:11 | 50.04288 | 8.53046 | 361 ft | 37 kts | 69° |
| 2026-05-06 16:11 | 50.04374 | 8.53404 | 373 ft | 28 kts | 70° |
| 2026-05-06 16:11 | 50.04403 | 8.53647 | 375 ft | 21 kts | 85° |
| 2026-05-06 16:11 | 50.04418 | 8.53842 | 375 ft | 16 kts | 83° |
| 2026-05-06 16:12 | 50.04428 | 8.53992 | 375 ft | 12 kts | 84° |
| 2026-05-06 16:12 | 50.04435 | 8.54109 | 375 ft | 14 kts | 84° |
| 2026-05-06 16:12 | 50.04450 | 8.54348 | 374 ft | 27 kts | 84° |
| 2026-05-06 16:12 | 50.04406 | 8.54650 | 366 ft | 31 kts | 124° |
| 2026-05-06 16:13 | 50.04220 | 8.54826 | 357 ft | 26 kts | 161° |
| 2026-05-06 16:13 | 50.04135 | 8.54873 | 355 ft | 5 kts | 161° |
| 2026-05-06 16:13 | 50.04112 | 8.54885 | 353 ft | 2 kts | 161° |
| 2026-05-06 16:13 | 50.04109 | 8.54887 | 350 ft | 0 kts | 161° |
| 2026-05-06 16:14 | 50.04103 | 8.54890 | 350 ft | 7 kts | 161° |
| 2026-05-06 16:14 | 50.03976 | 8.54995 | 354 ft | 20 kts | 125° |
| 2026-05-06 16:14 | 50.03971 | 8.55051 | 360 ft | 8 kts | 57° |
| 2026-05-06 16:14 | 50.04045 | 8.55146 | 359 ft | 13 kts | 50° |
| 2026-05-06 16:15 | 50.04074 | 8.55255 | 358 ft | 9 kts | 70° |
| 2026-05-06 16:15 | 50.04091 | 8.55352 | 354 ft | 13 kts | 93° |
| 2026-05-06 16:15 | 50.03994 | 8.55450 | 350 ft | 19 kts | 160° |
| 2026-05-06 16:15 | 50.03944 | 8.55585 | 348 ft | 10 kts | 82° |
| 2026-05-06 16:16 | 50.03979 | 8.55670 | 351 ft | 12 kts | 56° |
| 2026-05-06 16:16 | 50.04017 | 8.55824 | 355 ft | 21 kts | 70° |
| 2026-05-06 16:16 | 50.04082 | 8.56100 | 360 ft | 33 kts | 70° |
| 2026-05-06 16:16 | 50.04179 | 8.56497 | 357 ft | 44 kts | 69° |
| 2026-05-06 16:17 | 50.04272 | 8.56884 | 365 ft | 34 kts | 69° |
| 2026-05-06 16:17 | 50.04347 | 8.57204 | 364 ft | 30 kts | 70° |
| 2026-05-06 16:17 | 50.04421 | 8.57503 | 361 ft | 29 kts | 69° |
| 2026-05-06 16:17 | 50.04481 | 8.57764 | 366 ft | 21 kts | 70° |
| 2026-05-06 16:18 | 50.04525 | 8.57943 | 364 ft | 14 kts | 70° |
| 2026-05-06 16:18 | 50.04586 | 8.58031 | 361 ft | 12 kts | 356° |
| 2026-05-06 16:18 | 50.04670 | 8.57981 | 358 ft | 13 kts | 342° |
| 2026-05-06 16:18 | 50.04758 | 8.57933 | 362 ft | 13 kts | 339° |
| 2026-05-06 16:19 | 50.04847 | 8.57841 | 358 ft | 18 kts | 298° |
| 2026-05-06 16:19 | 50.04893 | 8.57672 | 365 ft | 17 kts | 294° |
| 2026-05-06 16:19 | 50.04938 | 8.57519 | 362 ft | 12 kts | 295° |
| 2026-05-06 16:19 | 50.04961 | 8.57442 | 363 ft | 6 kts | 297° |
| 2026-05-06 16:20 | 50.04978 | 8.57411 | 359 ft | 0 kts | 323° |
| 2026-05-06 16:20 | 50.04982 | 8.57408 | 358 ft | 3 kts | 330° |
| 2026-05-06 16:20 | 50.04998 | 8.57411 | 358 ft | 0 kts | 32° |
| 2026-05-06 16:20 | 50.05002 | 8.57422 | 358 ft | 3 kts | 61° |
| 2026-05-06 16:21 | 50.05004 | 8.57429 | 363 ft | 0 kts | 66° |